Terminal Aerodrome Forecast
Issued by NWS Duluth, MN

Home | Current Version | Previous Version | Text Only | Print | Product List | Glossary On
Versions: 1 2 3 4 5 6 7 8 9 10 11 12 13 14 15 16 17 18 19 20 21 22 23 24 25 26 27 28 29 30 31 32 33 34 35 36 37 38 39 40 41 42 43 44 45 46 47 48
000
FTUS43 KDLH 010400 AAD
TAFDLH
TAF AMD
KDLH 010405Z 0104/0124 VRB03KT P6SM VCSH FEW004 BKN035 OVC060
      TEMPO 0104/0106 5SM -SHRA BKN004 OVC018
     FM010600 VRB04KT 4SM -SHRA BR BKN004 OVC015
     FM010900 24002KT 2SM -DZ BR OVC004
     FM011300 29008KT 4SM BR SCT004 BKN015
     FM011600 30010KT P6SM SCT020=

USA.gov is the U.S. government's official web portal to all federal, state and local government web resources and services.